createdAt,value
2023-04-30T00:00:04.204Z,7.21
2023-04-30T00:01:04.304Z,7.17
2023-04-30T00:02:04.233Z,7.14
2023-04-30T00:03:04.429Z,7.18
2023-04-30T00:04:04.326Z,7.11
2023-04-30T00:05:04.139Z,7.15
2023-04-30T00:06:04.250Z,7.14
2023-04-30T00:07:04.115Z,7.15
2023-04-30T00:08:04.115Z,7.14
2023-04-30T00:09:04.091Z,7.14
2023-04-30T00:10:04.115Z,7.14
2023-04-30T00:11:04.154Z,7.18
2023-04-30T00:12:04.072Z,7.17
2023-04-30T00:13:04.051Z,7.20
2023-04-30T00:14:04.056Z,7.13
2023-04-30T00:15:04.093Z,7.14
2023-04-30T00:16:04.063Z,7.14
2023-04-30T00:17:04.059Z,7.14
2023-04-30T00:18:04.047Z,7.15
2023-04-30T00:19:03.996Z,7.15
2023-04-30T00:20:04.044Z,7.20
2023-04-30T00:21:04.022Z,7.14
2023-04-30T00:22:03.990Z,7.14
2023-04-30T00:23:03.944Z,7.17
2023-04-30T00:24:03.926Z,7.10
2023-04-30T00:25:03.930Z,7.14
2023-04-30T00:26:03.980Z,7.18
2023-04-30T00:27:03.909Z,7.15
2023-04-30T00:28:03.917Z,7.21
2023-04-30T00:29:03.880Z,7.14
2023-04-30T00:30:03.868Z,7.18
2023-04-30T00:31:03.930Z,7.14
2023-04-30T00:32:04.034Z,7.14
2023-04-30T00:33:03.978Z,7.14
2023-04-30T00:34:03.842Z,7.15
2023-04-30T00:35:03.828Z,7.18
2023-04-30T00:36:03.816Z,7.14
2023-04-30T00:37:03.862Z,7.20
2023-04-30T00:38:03.785Z,7.15
2023-04-30T00:39:03.783Z,7.15
2023-04-30T00:40:03.785Z,7.13
2023-04-30T00:41:03.759Z,7.07
2023-04-30T00:42:03.812Z,7.14
2023-04-30T00:43:03.748Z,7.07
2023-04-30T00:44:03.729Z,7.00
2023-04-30T00:45:03.714Z,7.13
2023-04-30T00:46:03.747Z,7.06
2023-04-30T00:47:03.752Z,7.05
2023-04-30T00:48:03.743Z,7.06
2023-04-30T00:49:03.692Z,7.03
2023-04-30T00:50:03.702Z,7.00
2023-04-30T00:51:03.676Z,7.05
2023-04-30T00:52:03.707Z,6.97
2023-04-30T00:53:03.629Z,6.99
2023-04-30T00:54:03.674Z,6.96
2023-04-30T00:55:03.681Z,6.79
2023-04-30T00:56:03.594Z,6.93
2023-04-30T00:57:03.620Z,6.79
2023-04-30T00:58:03.581Z,6.81
2023-04-30T00:59:03.587Z,6.79
2023-04-30T01:00:03.622Z,6.79
2023-04-30T01:01:03.614Z,6.74
2023-04-30T01:02:03.702Z,6.69
2023-04-30T01:03:03.591Z,6.66
2023-04-30T01:04:03.519Z,6.70
2023-04-30T01:05:03.527Z,6.69
2023-04-30T01:06:03.597Z,6.64
2023-04-30T01:07:03.547Z,6.64
2023-04-30T01:08:03.460Z,6.63
2023-04-30T01:09:03.481Z,6.59
2023-04-30T01:10:03.435Z,6.62
2023-04-30T01:11:03.438Z,6.62
2023-04-30T01:12:03.540Z,6.56
2023-04-30T01:13:03.403Z,6.51
2023-04-30T01:14:03.400Z,6.54
2023-04-30T01:15:03.441Z,6.59
2023-04-30T01:16:03.526Z,6.49
2023-04-30T01:17:03.360Z,6.49
2023-04-30T01:18:03.429Z,6.45
2023-04-30T01:19:03.437Z,6.30
2023-04-30T01:20:03.349Z,6.36
2023-04-30T01:21:03.366Z,6.52
2023-04-30T01:22:03.384Z,6.41
2023-04-30T01:23:03.303Z,6.39
2023-04-30T01:24:03.305Z,6.42
2023-04-30T01:25:03.292Z,6.38
2023-04-30T01:26:03.271Z,6.30
2023-04-30T01:27:03.364Z,6.35
2023-04-30T01:28:03.256Z,6.31
2023-04-30T01:29:03.233Z,6.33
2023-04-30T01:30:03.241Z,6.30
2023-04-30T01:31:03.274Z,6.24
2023-04-30T01:32:03.219Z,6.24
2023-04-30T01:33:03.324Z,6.30
2023-04-30T01:34:03.237Z,6.22
2023-04-30T01:35:03.500Z,6.26
2023-04-30T01:36:03.177Z,6.14
2023-04-30T01:37:03.245Z,6.12
2023-04-30T01:38:03.217Z,6.08
2023-04-30T01:39:03.148Z,6.11
2023-04-30T01:40:03.148Z,6.17
2023-04-30T01:41:03.143Z,6.05
2023-04-30T01:42:03.126Z,6.08
2023-04-30T01:43:03.178Z,6.12
2023-04-30T01:44:03.131Z,6.12
2023-04-30T01:45:03.104Z,6.09
2023-04-30T01:46:03.194Z,5.99
2023-04-30T01:47:03.117Z,6.05
2023-04-30T01:48:03.219Z,5.97
2023-04-30T01:49:03.052Z,6.04
2023-04-30T01:50:03.034Z,6.02
2023-04-30T01:51:03.019Z,5.94
2023-04-30T01:52:02.995Z,5.97
2023-04-30T01:53:03.098Z,5.94
2023-04-30T01:54:02.978Z,5.93
2023-04-30T01:55:02.982Z,5.82
2023-04-30T01:56:02.960Z,5.84
2023-04-30T01:57:02.971Z,5.84
2023-04-30T01:58:03.017Z,5.82
2023-04-30T01:59:02.933Z,5.82
2023-04-30T02:00:02.993Z,5.86
2023-04-30T02:01:02.914Z,5.84
2023-04-30T02:02:02.916Z,5.84
2023-04-30T02:03:03.021Z,5.82
2023-04-30T02:04:02.941Z,5.84
2023-04-30T02:05:02.876Z,5.89
2023-04-30T02:06:02.962Z,5.82
2023-04-30T02:07:02.852Z,5.89
2023-04-30T02:08:02.840Z,5.83
2023-04-30T02:09:02.940Z,5.82
2023-04-30T02:10:02.813Z,5.90
2023-04-30T02:11:02.795Z,5.87
2023-04-30T02:12:02.843Z,5.91
2023-04-30T02:13:02.829Z,5.87
2023-04-30T02:14:03.105Z,5.84
2023-04-30T02:15:02.775Z,5.84
2023-04-30T02:16:02.810Z,5.84
2023-04-30T02:17:02.762Z,5.82
2023-04-30T02:18:02.816Z,5.93
2023-04-30T02:19:02.772Z,5.87
2023-04-30T02:20:02.731Z,5.93
2023-04-30T02:21:02.734Z,5.89
2023-04-30T02:22:02.700Z,5.91
2023-04-30T02:23:02.728Z,5.89
2023-04-30T02:24:02.728Z,5.87
2023-04-30T02:25:02.732Z,5.84
2023-04-30T02:26:02.681Z,5.87
2023-04-30T02:27:02.700Z,5.94
2023-04-30T02:28:02.636Z,5.87
2023-04-30T02:29:02.671Z,5.89
2023-04-30T02:30:02.601Z,5.87
2023-04-30T02:31:02.585Z,5.87
2023-04-30T02:32:02.653Z,5.87
2023-04-30T02:33:02.629Z,5.91
2023-04-30T02:34:02.628Z,5.91
2023-04-30T02:35:02.591Z,5.84
2023-04-30T02:36:02.534Z,5.84
2023-04-30T02:37:02.538Z,5.82
2023-04-30T02:38:02.541Z,5.86
2023-04-30T02:39:02.569Z,5.86
2023-04-30T02:40:02.489Z,5.75
2023-04-30T02:41:02.504Z,5.73
2023-04-30T02:42:02.474Z,5.80
2023-04-30T02:43:02.527Z,5.79
2023-04-30T02:44:02.480Z,5.66
2023-04-30T02:45:02.497Z,5.69
2023-04-30T02:46:02.470Z,5.75
2023-04-30T02:47:02.439Z,5.69
2023-04-30T02:48:02.472Z,5.72
2023-04-30T02:49:02.418Z,5.68
2023-04-30T02:50:02.498Z,5.61
2023-04-30T02:51:02.382Z,5.65
2023-04-30T02:52:02.370Z,5.69
2023-04-30T02:53:02.354Z,5.64
2023-04-30T02:54:02.363Z,5.66
2023-04-30T02:55:02.415Z,5.65
2023-04-30T02:56:02.400Z,5.66
2023-04-30T02:57:02.341Z,5.62
2023-04-30T02:58:02.350Z,5.57
2023-04-30T02:59:02.367Z,5.53
2023-04-30T03:00:02.286Z,5.51
2023-04-30T03:01:02.305Z,5.57
2023-04-30T03:02:02.281Z,5.50
2023-04-30T03:03:02.542Z,5.53
2023-04-30T03:04:02.309Z,5.54
2023-04-30T03:05:02.243Z,5.54
2023-04-30T03:06:02.250Z,5.61
2023-04-30T03:07:02.220Z,5.57
2023-04-30T03:08:02.288Z,5.51
2023-04-30T03:09:02.277Z,5.50
2023-04-30T03:10:02.188Z,5.51
2023-04-30T03:11:02.222Z,5.53
2023-04-30T03:12:03.019Z,5.47
2023-04-30T03:13:02.283Z,5.53
2023-04-30T03:14:23.398Z,5.54
2023-04-30T03:15:02.295Z,5.46
2023-04-30T03:16:02.226Z,5.39
2023-04-30T03:17:02.107Z,5.48
2023-04-30T03:18:02.139Z,5.46
2023-04-30T03:19:02.395Z,5.39
2023-04-30T03:20:02.152Z,5.43
2023-04-30T03:21:02.075Z,5.46
2023-04-30T03:22:02.062Z,5.43
2023-04-30T03:23:02.129Z,5.44
2023-04-30T03:24:02.109Z,5.30
2023-04-30T03:25:02.038Z,5.38
2023-04-30T03:26:02.034Z,5.32
2023-04-30T03:27:02.025Z,5.39
2023-04-30T03:28:02.047Z,5.38
2023-04-30T03:29:02.015Z,5.30
2023-04-30T03:30:02.002Z,5.33
2023-04-30T03:31:02.021Z,5.38
2023-04-30T03:32:02.051Z,5.36
2023-04-30T03:33:02.034Z,5.33
2023-04-30T03:34:01.960Z,5.32
2023-04-30T03:35:01.929Z,5.32
2023-04-30T03:36:01.972Z,5.25
2023-04-30T03:37:01.911Z,5.30
2023-04-30T03:38:01.897Z,5.21
2023-04-30T03:39:01.887Z,5.25
2023-04-30T03:40:01.865Z,5.26
2023-04-30T03:41:01.927Z,5.20
2023-04-30T03:42:01.864Z,5.23
2023-04-30T03:43:01.872Z,5.18
2023-04-30T03:44:01.838Z,5.20
2023-04-30T03:45:01.849Z,5.23
2023-04-30T03:46:01.898Z,5.23
2023-04-30T03:47:01.818Z,5.18
2023-04-30T03:48:01.813Z,5.28
2023-04-30T03:49:01.813Z,5.23
2023-04-30T03:50:01.774Z,5.20
2023-04-30T03:51:01.817Z,5.17
2023-04-30T03:52:01.744Z,5.17
2023-04-30T03:53:02.073Z,5.15
2023-04-30T03:54:01.811Z,5.11
2023-04-30T03:55:01.746Z,5.14
2023-04-30T03:56:01.721Z,5.14
2023-04-30T03:57:01.688Z,5.11
2023-04-30T03:58:01.674Z,5.15
2023-04-30T03:59:01.699Z,5.15
2023-04-30T04:00:01.753Z,5.11
2023-04-30T04:01:01.671Z,5.11
2023-04-30T04:02:01.796Z,5.12
2023-04-30T04:03:01.698Z,5.14
2023-04-30T04:04:01.657Z,5.08
2023-04-30T04:05:01.690Z,5.10
2023-04-30T04:06:01.680Z,5.04
2023-04-30T04:07:01.619Z,5.07
2023-04-30T04:08:01.587Z,4.97
2023-04-30T04:09:01.574Z,5.15
2023-04-30T04:10:01.556Z,4.93
2023-04-30T04:11:01.607Z,4.92
2023-04-30T04:12:01.558Z,4.99
2023-04-30T04:13:01.559Z,4.94
2023-04-30T04:14:01.507Z,4.94
2023-04-30T04:15:01.498Z,4.93
2023-04-30T04:16:01.604Z,4.90
2023-04-30T04:17:01.504Z,4.96
2023-04-30T04:18:01.515Z,4.94
2023-04-30T04:19:01.480Z,4.89
2023-04-30T04:20:01.483Z,4.94
2023-04-30T04:21:01.511Z,4.96
2023-04-30T04:22:01.432Z,4.96
2023-04-30T04:23:01.428Z,4.89
2023-04-30T04:24:01.411Z,4.94
2023-04-30T04:25:01.407Z,4.87
2023-04-30T04:26:01.393Z,4.92
2023-04-30T04:27:01.459Z,4.89
2023-04-30T04:28:01.411Z,4.92
2023-04-30T04:29:01.363Z,4.89
2023-04-30T04:30:01.348Z,4.93
2023-04-30T04:31:01.401Z,4.92
2023-04-30T04:32:01.427Z,4.82
2023-04-30T04:33:01.403Z,4.90
2023-04-30T04:34:01.329Z,4.97
2023-04-30T04:35:01.288Z,4.92
2023-04-30T04:36:01.341Z,4.89
2023-04-30T04:37:01.276Z,4.96
2023-04-30T04:38:01.254Z,4.97
2023-04-30T04:39:01.258Z,4.92
2023-04-30T04:40:01.232Z,4.87
2023-04-30T04:41:01.303Z,4.92
2023-04-30T04:42:01.225Z,4.86
2023-04-30T04:43:01.208Z,4.94
2023-04-30T04:44:01.205Z,4.96
2023-04-30T04:45:01.177Z,4.92
2023-04-30T04:46:01.281Z,4.87
2023-04-30T04:47:01.472Z,5.05
2023-04-30T04:48:01.235Z,4.97
2023-04-30T04:49:01.152Z,4.94
2023-04-30T04:50:01.131Z,5.00
2023-04-30T04:51:01.172Z,5.11
2023-04-30T04:52:01.128Z,5.10
2023-04-30T04:53:01.107Z,5.02
2023-04-30T04:54:01.116Z,5.04
2023-04-30T04:55:01.110Z,5.07
2023-04-30T04:56:01.148Z,5.10
2023-04-30T04:57:01.074Z,5.20
2023-04-30T04:58:01.051Z,5.12
2023-04-30T04:59:01.036Z,5.30
2023-04-30T05:00:01.068Z,5.33
2023-04-30T05:01:01.073Z,5.38
2023-04-30T05:02:01.131Z,5.35
2023-04-30T05:03:01.077Z,5.46
2023-04-30T05:04:01.092Z,5.47
2023-04-30T05:05:00.991Z,5.50
2023-04-30T05:06:01.034Z,5.59
2023-04-30T05:07:00.982Z,5.57
2023-04-30T05:08:00.971Z,5.68
2023-04-30T05:09:00.910Z,5.71
2023-04-30T05:10:00.980Z,5.75
2023-04-30T05:11:00.943Z,5.75
2023-04-30T05:12:00.912Z,5.80
2023-04-30T05:13:00.982Z,5.84
2023-04-30T05:14:00.890Z,5.82
2023-04-30T05:15:00.870Z,5.84
2023-04-30T05:16:00.893Z,5.80
2023-04-30T05:17:00.848Z,5.87
2023-04-30T05:18:00.908Z,5.86
2023-04-30T05:19:00.901Z,5.91
2023-04-30T05:20:00.827Z,5.98
2023-04-30T05:21:00.925Z,6.05
2023-04-30T05:22:00.794Z,5.99
2023-04-30T05:23:00.784Z,6.05
2023-04-30T05:24:00.832Z,6.07
2023-04-30T05:25:00.876Z,6.17
2023-04-30T05:26:00.775Z,6.22
2023-04-30T05:27:00.764Z,6.27
2023-04-30T05:28:00.737Z,6.35
2023-04-30T05:29:00.735Z,6.51
2023-04-30T05:30:00.776Z,6.49
2023-04-30T05:31:00.718Z,6.60
2023-04-30T05:32:00.729Z,6.70
2023-04-30T05:33:00.735Z,6.64
2023-04-30T05:34:00.677Z,6.63
2023-04-30T05:35:00.733Z,6.70
2023-04-30T05:36:00.654Z,6.66
2023-04-30T05:37:00.645Z,6.81
2023-04-30T05:38:00.737Z,6.84
2023-04-30T05:39:00.625Z,6.78
2023-04-30T05:40:00.602Z,6.87
2023-04-30T05:41:00.594Z,6.87
2023-04-30T05:42:00.588Z,6.93
2023-04-30T05:43:00.582Z,7.00
2023-04-30T05:44:00.645Z,7.02
2023-04-30T05:45:01.050Z,7.11
2023-04-30T05:46:00.567Z,7.24
2023-04-30T05:47:00.532Z,7.25
2023-04-30T05:48:00.564Z,7.32
2023-04-30T05:49:00.564Z,7.45
2023-04-30T05:50:00.955Z,7.56
2023-04-30T05:51:00.515Z,7.60
2023-04-30T05:52:00.518Z,7.67
2023-04-30T05:53:00.492Z,7.76
2023-04-30T05:54:01.037Z,7.73
2023-04-30T05:55:00.505Z,7.69
2023-04-30T05:56:00.483Z,7.75
2023-04-30T05:57:00.448Z,7.72
2023-04-30T05:58:00.467Z,7.73
2023-04-30T05:59:00.480Z,7.82
2023-04-30T06:00:00.400Z,7.76
2023-04-30T06:01:00.507Z,7.85
2023-04-30T06:02:00.489Z,7.83
2023-04-30T06:03:00.446Z,7.93
2023-04-30T06:04:00.430Z,7.93
2023-04-30T06:05:00.380Z,7.98
2023-04-30T06:06:00.439Z,7.97
2023-04-30T06:07:00.343Z,8.01
2023-04-30T06:08:00.412Z,7.98
2023-04-30T06:09:00.389Z,8.03
2023-04-30T06:10:00.444Z,8.08
2023-04-30T06:11:00.362Z,8.13
2023-04-30T06:12:00.434Z,8.16
2023-04-30T06:13:00.248Z,8.18
2023-04-30T06:14:00.243Z,8.16
2023-04-30T06:15:00.267Z,8.19
2023-04-30T06:16:01.079Z,8.26
2023-04-30T06:17:00.302Z,8.27
2023-04-30T06:18:00.310Z,8.34
2023-04-30T06:19:00.264Z,8.45
2023-04-30T06:20:00.239Z,8.45
2023-04-30T06:21:00.292Z,8.41
2023-04-30T06:22:00.372Z,8.63
2023-04-30T06:23:00.158Z,8.60
2023-04-30T06:24:00.158Z,8.60
2023-04-30T06:25:00.204Z,8.66
2023-04-30T06:26:00.134Z,8.66
2023-04-30T06:27:00.204Z,8.63
2023-04-30T06:28:00.191Z,8.69
2023-04-30T06:29:00.105Z,8.74
2023-04-30T06:30:00.135Z,8.67
2023-04-30T06:31:00.099Z,8.64
2023-04-30T06:32:00.118Z,8.64
2023-04-30T06:33:00.189Z,8.76
2023-04-30T06:34:00.050Z,8.70
2023-04-30T06:35:00.014Z,8.79
2023-04-30T06:36:00.018Z,8.79
2023-04-30T06:37:00.005Z,8.74
2023-04-30T06:38:00.130Z,8.85
2023-04-30T06:38:59.974Z,8.92
2023-04-30T06:39:59.961Z,8.99
2023-04-30T06:40:59.970Z,8.97
2023-04-30T06:41:59.987Z,8.97
2023-04-30T06:43:00.034Z,9.00
2023-04-30T06:43:59.972Z,9.00
2023-04-30T06:44:59.946Z,9.11
2023-04-30T06:45:59.935Z,9.11
2023-04-30T06:46:59.923Z,9.29
2023-04-30T06:47:59.959Z,9.23
2023-04-30T06:48:59.952Z,9.19
2023-04-30T06:49:59.948Z,9.32
2023-04-30T06:50:59.869Z,9.39
2023-04-30T06:51:59.850Z,9.39
2023-04-30T06:52:59.840Z,9.55
2023-04-30T06:53:59.873Z,9.50
2023-04-30T06:54:59.870Z,9.56
2023-04-30T06:55:59.808Z,9.51
2023-04-30T06:56:59.803Z,9.64
2023-04-30T06:57:59.812Z,9.59
2023-04-30T06:58:59.880Z,9.64
2023-04-30T06:59:59.760Z,9.68
2023-04-30T07:00:59.747Z,9.72
2023-04-30T07:01:59.766Z,9.79
2023-04-30T07:02:59.846Z,9.79
2023-04-30T07:03:59.851Z,9.76
2023-04-30T07:04:59.750Z,9.86
2023-04-30T07:05:59.794Z,9.84
2023-04-30T07:06:59.697Z,9.86
2023-04-30T07:07:59.720Z,9.86
2023-04-30T07:08:59.718Z,9.99
2023-04-30T07:09:59.719Z,10.04
2023-04-30T07:10:59.714Z,10.07
2023-04-30T07:11:59.632Z,10.19
2023-04-30T07:12:59.685Z,10.16
2023-04-30T07:13:59.621Z,10.19
2023-04-30T07:14:59.704Z,10.07
2023-04-30T07:15:59.748Z,10.07
2023-04-30T07:16:59.589Z,10.13
2023-04-30T07:17:59.632Z,10.13
2023-04-30T07:18:59.588Z,10.15
2023-04-30T07:19:59.538Z,10.22
2023-04-30T07:20:59.595Z,10.17
2023-04-30T07:21:59.524Z,10.13
2023-04-30T07:22:59.517Z,10.22
2023-04-30T07:23:59.560Z,10.19
2023-04-30T07:24:59.482Z,10.19
2023-04-30T07:25:59.538Z,10.19
2023-04-30T07:26:59.674Z,10.20
2023-04-30T07:27:59.499Z,10.17
2023-04-30T07:28:59.475Z,10.22
2023-04-30T07:29:59.447Z,10.19
2023-04-30T07:30:59.487Z,10.15
2023-04-30T07:31:59.522Z,10.26
2023-04-30T07:32:59.435Z,10.33
2023-04-30T07:33:59.906Z,10.35
2023-04-30T07:34:59.393Z,10.20
2023-04-30T07:35:59.390Z,10.30
2023-04-30T07:36:59.357Z,10.35
2023-04-30T07:37:59.498Z,10.31
2023-04-30T07:38:59.448Z,10.34
2023-04-30T07:39:59.330Z,10.41
2023-04-30T07:40:59.374Z,10.46
2023-04-30T07:41:59.321Z,10.46
2023-04-30T07:42:59.294Z,10.40
2023-04-30T07:43:59.301Z,10.44
2023-04-30T07:44:59.310Z,10.42
2023-04-30T07:45:59.417Z,10.41
2023-04-30T07:46:59.249Z,10.41
2023-04-30T07:47:59.334Z,10.40
2023-04-30T07:48:59.285Z,10.48
2023-04-30T07:49:59.220Z,10.44
2023-04-30T07:50:59.212Z,10.46
2023-04-30T07:51:59.213Z,10.46
2023-04-30T07:52:59.220Z,10.49
2023-04-30T07:53:59.177Z,10.44
2023-04-30T07:54:59.208Z,10.54
2023-04-30T07:55:59.179Z,10.54
2023-04-30T07:56:59.165Z,10.59
2023-04-30T07:57:59.135Z,10.67
2023-04-30T07:58:59.130Z,10.63
2023-04-30T07:59:59.403Z,10.69
2023-04-30T08:00:59.137Z,10.74
2023-04-30T08:01:59.127Z,10.87
2023-04-30T08:02:59.283Z,10.87
2023-04-30T08:03:59.239Z,11.00
2023-04-30T08:04:59.142Z,10.92
2023-04-30T08:05:59.063Z,10.92
2023-04-30T08:06:59.222Z,10.90
2023-04-30T08:07:59.030Z,10.96
2023-04-30T08:08:59.030Z,10.78
2023-04-30T08:09:59.158Z,11.02
2023-04-30T08:10:59.008Z,10.99
2023-04-30T08:11:58.995Z,10.96
2023-04-30T08:12:58.961Z,11.07
2023-04-30T08:13:59.011Z,10.89
2023-04-30T08:14:59.014Z,10.99
2023-04-30T08:15:59.186Z,11.08
2023-04-30T08:16:59.064Z,11.04
2023-04-30T08:17:59.046Z,11.19
2023-04-30T08:19:01.027Z,11.00
2023-04-30T08:19:59.101Z,11.07
2023-04-30T08:20:59.092Z,11.12
2023-04-30T08:21:58.880Z,11.18
2023-04-30T08:22:58.871Z,11.19
2023-04-30T08:23:58.913Z,11.19
2023-04-30T08:24:58.851Z,11.23
2023-04-30T08:25:58.845Z,11.32
2023-04-30T08:26:58.905Z,11.26
2023-04-30T08:27:58.901Z,11.23
2023-04-30T08:28:58.805Z,11.22
2023-04-30T08:29:58.875Z,11.25
2023-04-30T08:30:58.827Z,11.22
2023-04-30T08:31:58.874Z,11.32
2023-04-30T08:32:59.122Z,11.36
2023-04-30T08:33:58.760Z,11.43
2023-04-30T08:34:58.815Z,11.41
2023-04-30T08:35:58.737Z,11.44
2023-04-30T08:36:58.768Z,11.52
2023-04-30T08:37:58.790Z,11.55
2023-04-30T08:38:58.772Z,11.66
2023-04-30T08:39:58.721Z,11.77
2023-04-30T08:40:58.830Z,11.87
2023-04-30T08:41:58.686Z,11.84
2023-04-30T08:42:58.720Z,11.91
2023-04-30T08:43:58.638Z,11.86
2023-04-30T08:44:58.695Z,11.91
2023-04-30T08:45:58.628Z,11.91
2023-04-30T08:46:58.614Z,11.90
2023-04-30T08:47:58.673Z,11.94
2023-04-30T08:48:58.778Z,11.81
2023-04-30T08:49:58.666Z,11.86
2023-04-30T08:50:58.846Z,11.91
2023-04-30T08:51:58.575Z,11.86
2023-04-30T08:52:58.601Z,11.86
2023-04-30T08:53:58.600Z,11.78
2023-04-30T08:54:58.525Z,11.84
2023-04-30T08:55:58.519Z,11.88
2023-04-30T08:56:58.510Z,11.90
2023-04-30T08:57:58.504Z,11.95
2023-04-30T08:58:58.749Z,11.91
2023-04-30T08:59:58.605Z,11.95
2023-04-30T09:00:58.490Z,11.91
2023-04-30T09:01:58.524Z,12.07
2023-04-30T09:02:58.610Z,11.97
2023-04-30T09:03:58.581Z,12.09
2023-04-30T09:04:58.626Z,12.07
2023-04-30T09:05:58.431Z,12.13
2023-04-30T09:06:58.489Z,12.24
2023-04-30T09:08:03.538Z,12.17
2023-04-30T09:08:59.661Z,12.22
2023-04-30T09:09:58.428Z,12.20
2023-04-30T09:10:58.358Z,12.25
2023-04-30T09:11:58.335Z,12.20
2023-04-30T09:12:58.364Z,12.21
2023-04-30T09:13:58.430Z,12.20
2023-04-30T09:14:58.489Z,12.24
2023-04-30T09:15:58.617Z,12.27
2023-04-30T09:16:58.533Z,12.37
2023-04-30T09:17:58.325Z,12.36
2023-04-30T09:18:58.332Z,12.37
2023-04-30T09:19:58.354Z,12.42
2023-04-30T09:20:58.435Z,12.42
2023-04-30T09:21:58.243Z,12.50
2023-04-30T09:22:58.227Z,12.45
2023-04-30T09:23:58.217Z,12.47
2023-04-30T09:24:58.614Z,12.50
2023-04-30T09:25:58.453Z,12.55
2023-04-30T09:26:58.248Z,12.45
2023-04-30T09:27:58.193Z,12.54
2023-04-30T09:28:58.292Z,12.64
2023-04-30T09:29:58.138Z,12.65
2023-04-30T09:30:58.295Z,12.70
2023-04-30T09:31:58.224Z,12.73
2023-04-30T09:32:58.285Z,12.83
2023-04-30T09:33:58.224Z,12.80
2023-04-30T09:34:58.089Z,12.80
2023-04-30T09:35:58.174Z,12.85
2023-04-30T09:36:58.165Z,12.82
2023-04-30T09:37:58.097Z,12.79
2023-04-30T09:38:58.055Z,12.85
2023-04-30T09:39:58.046Z,12.93
2023-04-30T09:40:58.340Z,12.90
2023-04-30T09:41:58.069Z,12.85
2023-04-30T09:42:58.001Z,12.91
2023-04-30T09:43:58.077Z,12.90
2023-04-30T09:44:57.988Z,12.98
2023-04-30T09:45:58.079Z,13.01
2023-04-30T09:46:58.084Z,13.05
2023-04-30T09:48:05.695Z,13.09
2023-04-30T09:48:58.968Z,13.19
2023-04-30T09:49:58.033Z,13.27
2023-04-30T09:50:57.990Z,13.12
2023-04-30T09:51:57.945Z,13.27
2023-04-30T09:52:57.930Z,13.23
2023-04-30T09:53:57.885Z,13.31
2023-04-30T09:54:57.877Z,13.35
2023-04-30T09:55:58.466Z,13.28
2023-04-30T09:56:57.947Z,13.25
2023-04-30T09:57:57.839Z,13.31
2023-04-30T09:58:57.887Z,13.30
2023-04-30T09:59:58.018Z,13.25
2023-04-30T10:00:57.918Z,13.28
2023-04-30T10:01:57.809Z,13.30
2023-04-30T10:02:57.808Z,13.31
2023-04-30T10:03:57.824Z,13.31
2023-04-30T10:04:57.793Z,13.39
2023-04-30T10:05:57.818Z,13.49
2023-04-30T10:06:57.864Z,13.46
2023-04-30T10:07:57.738Z,13.60
2023-04-30T10:08:57.750Z,13.62
2023-04-30T10:09:57.899Z,13.71
2023-04-30T10:10:57.717Z,13.60
2023-04-30T10:11:57.756Z,13.59
2023-04-30T10:12:57.683Z,13.54
2023-04-30T10:13:57.694Z,13.57
2023-04-30T10:14:57.664Z,13.59
2023-04-30T10:15:57.660Z,13.56
2023-04-30T10:16:57.779Z,13.56
2023-04-30T10:17:57.759Z,13.65
2023-04-30T10:18:57.622Z,13.74
2023-04-30T10:19:57.612Z,13.78
2023-04-30T10:20:57.623Z,13.86
2023-04-30T10:21:57.849Z,13.86
2023-04-30T10:22:57.591Z,13.90
2023-04-30T10:23:57.569Z,13.86
2023-04-30T10:24:57.585Z,13.90
2023-04-30T10:25:57.558Z,14.03
2023-04-30T10:26:57.625Z,13.92
2023-04-30T10:27:57.543Z,13.92
2023-04-30T10:28:57.519Z,13.86
2023-04-30T10:29:57.757Z,13.86
2023-04-30T10:30:57.490Z,13.93
2023-04-30T10:31:57.590Z,13.90
2023-04-30T10:32:57.525Z,14.17
2023-04-30T10:33:57.469Z,14.12
2023-04-30T10:34:57.463Z,14.15
2023-04-30T10:35:57.489Z,14.12
2023-04-30T10:36:57.434Z,14.20
2023-04-30T10:37:57.418Z,14.36
2023-04-30T10:38:57.485Z,14.32
2023-04-30T10:39:57.427Z,14.41
2023-04-30T10:40:57.435Z,14.40
2023-04-30T10:41:57.461Z,14.41
2023-04-30T10:42:57.358Z,14.35
2023-04-30T10:43:57.847Z,14.32
2023-04-30T10:44:57.366Z,14.30
2023-04-30T10:45:57.375Z,14.23
2023-04-30T10:46:57.355Z,14.25
2023-04-30T10:47:57.370Z,14.26
2023-04-30T10:48:57.373Z,14.28
2023-04-30T10:49:57.574Z,14.41
2023-04-30T10:50:57.291Z,14.45
2023-04-30T10:51:57.284Z,14.50
2023-04-30T10:52:57.300Z,14.41
2023-04-30T10:53:57.319Z,14.47
2023-04-30T10:54:57.244Z,14.47
2023-04-30T10:55:57.246Z,14.48
2023-04-30T10:56:57.228Z,14.51
2023-04-30T10:57:57.265Z,14.45
2023-04-30T10:58:57.198Z,14.37
2023-04-30T10:59:57.446Z,14.37
2023-04-30T11:00:57.215Z,14.45
2023-04-30T11:01:57.335Z,14.43
2023-04-30T11:02:57.177Z,14.48
2023-04-30T11:03:57.206Z,14.54
2023-04-30T11:04:57.184Z,14.58
2023-04-30T11:05:57.139Z,14.62
2023-04-30T11:06:57.110Z,14.63
2023-04-30T11:07:57.129Z,14.66
2023-04-30T11:08:57.155Z,14.66
2023-04-30T11:09:57.386Z,14.66
2023-04-30T11:10:57.098Z,14.79
2023-04-30T11:11:57.056Z,14.72
2023-04-30T11:12:57.148Z,14.72
2023-04-30T11:13:57.112Z,14.82
2023-04-30T11:14:57.032Z,14.84
2023-04-30T11:15:57.099Z,14.81
2023-04-30T11:16:57.004Z,14.84
2023-04-30T11:17:57.025Z,14.82
2023-04-30T11:18:57.026Z,14.89
2023-04-30T11:19:57.115Z,14.85
2023-04-30T11:20:56.964Z,14.85
2023-04-30T11:21:56.973Z,14.94
2023-04-30T11:22:57.019Z,14.92
2023-04-30T11:23:56.937Z,14.97
2023-04-30T11:24:56.990Z,15.00
2023-04-30T11:25:56.921Z,14.99
2023-04-30T11:26:56.899Z,15.06
2023-04-30T11:27:56.892Z,15.07
2023-04-30T11:28:56.993Z,14.99
2023-04-30T11:29:57.370Z,14.99
2023-04-30T11:30:56.965Z,14.97
2023-04-30T11:31:56.937Z,15.02
2023-04-30T11:32:56.844Z,15.00
2023-04-30T11:33:56.806Z,14.96
2023-04-30T11:34:56.862Z,15.09
2023-04-30T11:35:56.807Z,15.06
2023-04-30T11:36:56.811Z,15.06
2023-04-30T11:37:56.811Z,15.11
2023-04-30T11:38:56.779Z,15.17
2023-04-30T11:39:57.002Z,15.19
2023-04-30T11:40:56.749Z,15.24
2023-04-30T11:41:56.728Z,15.18
2023-04-30T11:42:56.714Z,15.24
2023-04-30T11:43:56.710Z,15.27
2023-04-30T11:44:56.746Z,15.28
2023-04-30T11:45:56.767Z,15.29
2023-04-30T11:46:56.724Z,15.27
2023-04-30T11:47:56.751Z,15.27
2023-04-30T11:48:56.669Z,15.29
2023-04-30T11:49:56.804Z,15.29
2023-04-30T11:50:56.698Z,15.37
2023-04-30T11:51:56.677Z,15.31
2023-04-30T11:52:56.622Z,15.31
2023-04-30T11:53:56.606Z,15.33
2023-04-30T11:54:56.658Z,15.35
2023-04-30T11:55:56.586Z,15.33
2023-04-30T11:56:56.567Z,15.35
2023-04-30T11:57:56.556Z,15.33
2023-04-30T11:58:56.632Z,15.43
2023-04-30T11:59:56.776Z,15.44
2023-04-30T12:00:56.647Z,15.46
2023-04-30T12:01:56.627Z,15.40
2023-04-30T12:02:56.781Z,15.36
2023-04-30T12:03:56.716Z,15.40
2023-04-30T12:04:56.498Z,15.47
2023-04-30T12:05:56.514Z,15.44
2023-04-30T12:06:56.469Z,15.47
2023-04-30T12:07:56.475Z,15.47
2023-04-30T12:08:56.506Z,15.44
2023-04-30T12:09:56.898Z,15.59
2023-04-30T12:10:56.404Z,15.55
2023-04-30T12:11:56.429Z,15.61
2023-04-30T12:12:56.413Z,15.58
2023-04-30T12:13:56.463Z,15.65
2023-04-30T12:14:56.376Z,15.70
2023-04-30T12:15:56.370Z,15.65
2023-04-30T12:16:56.507Z,15.70
2023-04-30T12:17:56.486Z,15.59
2023-04-30T12:18:56.402Z,15.59
2023-04-30T12:19:56.558Z,15.68
2023-04-30T12:20:56.323Z,15.70
2023-04-30T12:21:56.317Z,15.72
2023-04-30T12:22:56.401Z,15.72
2023-04-30T12:23:56.314Z,15.80
2023-04-30T12:24:56.328Z,15.91
2023-04-30T12:25:56.269Z,15.86
2023-04-30T12:26:56.262Z,15.84
2023-04-30T12:27:56.346Z,15.94
2023-04-30T12:28:56.229Z,15.92
2023-04-30T12:29:56.568Z,16.02
2023-04-30T12:30:56.204Z,15.94
2023-04-30T12:31:56.242Z,15.91
2023-04-30T12:32:56.365Z,15.86
2023-04-30T12:33:56.180Z,15.86
2023-04-30T12:34:56.230Z,15.86
2023-04-30T12:35:56.157Z,15.91
2023-04-30T12:36:56.211Z,15.77
2023-04-30T12:37:56.141Z,15.91
2023-04-30T12:38:56.127Z,15.92
2023-04-30T12:39:56.531Z,16.05
2023-04-30T12:40:56.099Z,16.05
2023-04-30T12:41:56.103Z,16.08
2023-04-30T12:42:56.089Z,15.95
2023-04-30T12:43:56.155Z,15.95
2023-04-30T12:44:56.053Z,15.86
2023-04-30T12:45:56.098Z,15.79
2023-04-30T12:46:56.032Z,15.76
2023-04-30T12:47:56.057Z,15.70
2023-04-30T12:48:56.446Z,15.72
2023-04-30T12:49:56.263Z,15.68
2023-04-30T12:50:56.054Z,15.70
2023-04-30T12:51:56.010Z,15.73
2023-04-30T12:52:55.974Z,15.76
2023-04-30T12:53:55.978Z,15.80
2023-04-30T12:54:55.965Z,15.83
2023-04-30T12:55:56.165Z,15.86
2023-04-30T12:56:55.958Z,15.95
2023-04-30T12:57:55.935Z,15.98
2023-04-30T12:58:55.911Z,15.95
2023-04-30T12:59:56.304Z,15.97
2023-04-30T13:00:55.980Z,16.08
2023-04-30T13:01:56.012Z,16.01
2023-04-30T13:02:55.962Z,15.95
2023-04-30T13:03:56.110Z,15.98
2023-04-30T13:04:55.960Z,15.82
2023-04-30T13:05:55.878Z,15.86